Time;durP1;ratioP1;P1;durP2;ratioP2;P2;SDS_P1;SDS_P2;PMS_P1;PMS_P2;Temp;Humidity;BMP_temperature;BMP_pressure;BME280_temperature;BME280_humidity;BME280_pressure;Samples;Min_cycle;Max_cycle;Signal;HPM_P1;HPM_P2
2022/11/05 07:46:02;;;;;;;8.13;4.30;;;6.50;99.90;;;;;;4840447;29;20107;-86
2022/11/05 07:56:13;;;;;;;8.48;4.13;;;6.80;99.90;;;;;;4814909;29;20075;-86
2022/11/05 08:11:50;;;;;;;6.03;3.35;;;7.20;99.90;;;;;;4906932;23;20108;-85
2022/11/05 08:21:47;;;;;;;6.38;3.83;;;7.50;99.90;;;;;;4787854;29;20137;-87
2022/11/05 08:24:25;;;;;;;6.90;3.55;;;7.50;99.90;;;;;;4767861;29;20070;-84
2022/11/05 08:26:53;;;;;;;4.07;2.90;;;7.60;99.90;;;;;;4794730;29;20050;-83
2022/11/05 08:29:19;;;;;;;5.30;3.03;;;7.70;99.90;;;;;;4801359;29;20106;-82
2022/11/05 08:31:45;;;;;;;3.45;2.95;;;7.80;99.90;;;;;;4818177;29;20188;-81
2022/11/05 08:34:10;;;;;;;4.80;2.88;;;7.90;99.90;;;;;;4802541;29;20039;-82
2022/11/05 08:36:45;;;;;;;6.80;4.00;;;8.00;99.90;;;;;;4792746;29;20035;-84
2022/11/05 08:39:30;;;;;;;5.70;3.20;;;8.10;99.90;;;;;;4805632;29;20125;-84
2022/11/05 08:42:31;;;;;;;11.32;3.58;;;8.10;99.90;;;;;;4811905;29;20058;-85
2022/11/05 08:49:02;;;;;;;3.78;2.97;;;8.20;99.90;;;;;;4821223;29;20082;-84
2022/11/05 08:51:57;;;;;;;6.35;3.33;;;8.30;99.90;;;;;;4749384;29;20095;-85
2022/11/05 08:54:37;;;;;;;5.45;3.03;;;8.40;99.90;;;;;;4750120;29;20077;-85
2022/11/05 08:57:06;;;;;;;4.95;2.75;;;8.40;99.90;;;;;;4804822;29;20069;-85
2022/11/05 08:59:31;;;;;;;6.75;2.70;;;8.60;99.90;;;;;;4818287;29;20429;-86
2022/11/05 09:02:02;;;;;;;5.25;3.03;;;8.50;99.90;;;;;;4820813;29;20085;-85
2022/11/05 09:04:32;;;;;;;6.43;2.92;;;9.10;99.90;;;;;;4823435;29;20038;-85
2022/11/05 09:06:57;;;;;;;8.15;3.15;;;8.50;99.90;;;;;;4835132;29;20497;-85
2022/11/05 09:13:32;;;;;;;5.50;3.17;;;8.70;99.90;;;;;;4821769;29;20036;-85
2022/11/05 09:15:58;;;;;;;4.03;2.80;;;8.80;99.90;;;;;;4831548;29;20502;-86
2022/11/05 09:18:24;;;;;;;5.32;3.13;;;9.20;99.90;;;;;;4817195;29;20503;-86
2022/11/05 09:20:50;;;;;;;7.28;3.50;;;8.80;99.90;;;;;;4821122;29;20133;-86
2022/11/05 09:23:16;;;;;;;4.53;2.58;;;9.00;99.90;;;;;;4806341;29;20550;-85
2022/11/05 09:25:42;;;;;;;5.25;3.15;;;9.00;99.90;;;;;;4816975;29;20122;-85
2022/11/05 09:28:11;;;;;;;5.32;3.00;;;9.00;99.90;;;;;;4821975;29;20117;-86
2022/11/05 09:30:41;;;;;;;5.57;2.83;;;9.10;99.90;;;;;;4832307;29;20146;-85
2022/11/05 09:33:07;;;;;;;4.47;2.85;;;9.20;99.90;;;;;;4822954;29;20742;-86
2022/11/05 09:35:33;;;;;;;4.25;2.40;;;9.20;99.90;;;;;;4821287;29;20114;-86
2022/11/05 09:37:59;;;;;;;4.60;2.60;;;9.30;99.90;;;;;;4821287;29;20050;-85
2022/11/05 09:40:26;;;;;;;6.47;2.58;;;10.10;99.90;;;;;;4817500;29;20050;-86
2022/11/05 09:42:53;;;;;;;6.32;2.47;;;9.40;99.90;;;;;;4835655;29;20076;-85
2022/11/05 09:45:22;;;;;;;5.45;2.70;;;9.50;99.90;;;;;;4821456;29;20537;-86
2022/11/05 09:47:56;;;;;;;4.80;2.40;;;9.60;99.90;;;;;;4804088;29;20057;-85
2022/11/05 09:50:29;;;;;;;5.15;2.50;;;9.60;99.90;;;;;;4809509;29;20133;-86
2022/11/05 09:52:55;;;;;;;6.47;2.10;;;9.70;99.90;;;;;;4823360;29;20150;-85
2022/11/05 09:55:34;;;;;;;5.85;2.17;;;9.80;99.90;;;;;;4812192;29;20502;-86
2022/11/05 09:58:16;;;;;;;6.57;2.65;;;9.90;99.90;;;;;;4837229;29;20108;-86
2022/11/05 10:00:42;;;;;;;5.90;1.92;;;9.90;99.90;;;;;;4824535;29;20053;-84
2022/11/05 10:03:16;;;;;;;6.15;2.65;;;10.00;99.90;;;;;;4828403;29;20046;-85
2022/11/05 10:05:50;;;;;;;6.07;2.20;;;10.10;99.90;;;;;;4823642;29;20050;-86
2022/11/05 10:08:33;;;;;;;5.72;2.10;;;10.10;99.90;;;;;;4824295;29;20536;-85
2022/11/05 10:11:14;;;;;;;4.70;2.22;;;10.10;99.90;;;;;;4823899;29;20446;-86
2022/11/05 10:13:59;;;;;;;5.80;1.95;;;10.10;99.90;;;;;;4822687;29;20043;-85
2022/11/05 10:16:39;;;;;;;4.57;1.83;;;10.30;99.90;;;;;;4807603;29;20076;-85
2022/11/05 10:19:12;;;;;;;7.43;1.85;;;10.60;99.90;;;;;;4819314;29;20073;-86
2022/11/05 10:21:38;;;;;;;6.65;1.83;;;11.10;99.90;;;;;;4824827;29;20132;-84
2022/11/05 10:24:16;;;;;;;10.15;2.00;;;10.80;99.90;;;;;;4823413;29;20046;-85
2022/11/05 10:26:46;;;;;;;6.88;1.60;;;10.60;99.90;;;;;;4806930;29;20030;-85
2022/11/05 10:29:16;;;;;;;7.28;1.80;;;11.10;99.90;;;;;;4823174;29;20485;-86
2022/11/05 10:31:42;;;;;;;12.30;2.17;;;10.80;99.90;;;;;;4808732;29;20038;-86
2022/11/05 10:34:12;;;;;;;6.68;1.75;;;10.90;99.90;;;;;;4811456;29;20079;-86
2022/11/05 10:36:38;;;;;;;4.95;1.30;;;11.00;99.90;;;;;;4817865;29;20133;-86
2022/11/05 10:39:11;;;;;;;5.57;1.25;;;11.10;99.90;;;;;;4826158;29;20125;-86
2022/11/05 10:42:01;;;;;;;4.97;1.50;;;11.20;99.90;;;;;;4816639;29;20089;-85
2022/11/05 10:44:57;;;;;;;3.40;0.90;;;11.30;99.90;;;;;;4807122;29;20125;-86
2022/11/05 10:47:38;;;;;;;2.22;1.10;;;11.40;99.90;;;;;;4838308;29;20038;-86
2022/11/05 10:50:14;;;;;;;7.93;1.88;;;11.40;99.90;;;;;;4819787;29;20523;-85
2022/11/05 10:53:00;;;;;;;4.97;0.88;;;11.50;99.90;;;;;;4823751;29;20174;-86
2022/11/05 10:55:33;;;;;;;6.03;1.33;;;11.50;99.90;;;;;;4815710;29;20050;-86
2022/11/05 10:58:18;;;;;;;3.65;1.17;;;11.60;99.90;;;;;;4823085;29;20307;-86
2022/11/05 11:00:50;;;;;;;4.13;1.48;;;11.70;99.90;;;;;;4834493;29;20860;-86
2022/11/05 11:03:34;;;;;;;5.25;1.00;;;11.90;99.90;;;;;;4822878;29;20054;-86
2022/11/05 11:06:03;;;;;;;3.85;0.90;;;12.00;99.90;;;;;;4838464;29;20065;-85
2022/11/05 11:08:46;;;;;;;4.18;1.17;;;12.10;99.90;;;;;;4806551;29;20034;-86
2022/11/05 11:11:55;;;;;;;7.00;1.30;;;12.20;99.90;;;;;;4820748;29;20034;-86
2022/11/05 11:14:21;;;;;;;5.50;1.05;;;12.30;99.90;;;;;;4818275;29;20130;-85
2022/11/05 11:16:52;;;;;;;6.53;1.15;;;12.70;99.90;;;;;;4818982;29;20122;-85
2022/11/05 11:20:13;;;;;;;3.60;0.90;;;12.90;99.90;;;;;;4812927;29;20377;-85
2022/11/05 11:22:39;;;;;;;7.57;0.88;;;13.30;99.90;;;;;;4821664;29;20053;-84
2022/11/05 11:25:25;;;;;;;8.10;0.85;;;13.60;99.90;;;;;;4817919;29;20042;-84
2022/11/05 11:27:52;;;;;;;1.98;0.50;;;13.70;99.90;;;;;;4816594;29;20446;-83
2022/11/05 11:30:19;;;;;;;5.63;0.60;;;14.00;99.90;;;;;;4803383;29;20066;-83
2022/11/05 11:32:47;;;;;;;2.60;0.70;;;13.60;99.90;;;;;;4801905;29;20058;-83
2022/11/05 11:35:24;;;;;;;3.28;0.50;;;14.50;99.90;;;;;;4805285;29;20133;-82
2022/11/05 11:37:55;;;;;;;2.35;0.50;;;13.60;99.90;;;;;;4820145;29;20061;-85
2022/11/05 11:40:24;;;;;;;4.07;0.60;;;13.60;99.90;;;;;;4809434;29;20046;-84
2022/11/05 11:42:54;;;;;;;3.60;0.77;;;13.30;99.90;;;;;;4831369;29;20046;-83
2022/11/05 11:45:34;;;;;;;1.67;0.50;;;13.10;99.90;;;;;;4818234;29;20052;-83
2022/11/05 11:48:04;;;;;;;4.07;0.85;;;12.90;99.90;;;;;;4816778;29;20057;-82
2022/11/05 11:50:44;;;;;;;3.58;1.13;;;12.70;99.90;;;;;;4817957;29;20056;-83
2022/11/05 11:53:19;;;;;;;2.78;0.80;;;12.70;99.90;;;;;;4804557;29;20116;-84
2022/11/05 11:55:54;;;;;;;2.28;0.93;;;12.50;99.90;;;;;;4814796;29;20046;-83
2022/11/05 11:58:49;;;;;;;9.17;0.80;;;12.50;99.90;;;;;;4804296;29;20410;-83
2022/11/05 12:01:20;;;;;;;7.07;0.90;;;12.50;99.90;;;;;;4832517;29;20552;-83
2022/11/05 12:03:51;;;;;;;4.18;0.80;;;12.40;99.90;;;;;;4833361;29;20042;-82
2022/11/05 12:06:50;;;;;;;4.90;0.63;;;12.30;99.90;;;;;;4831759;29;20046;-83
2022/11/05 12:09:39;;;;;;;6.25;1.00;;;12.30;99.90;;;;;;4817555;29;20069;-82
2022/11/05 12:12:22;;;;;;;5.13;1.05;;;12.30;99.90;;;;;;4829398;29;20465;-85
2022/11/05 12:15:00;;;;;;;5.00;1.25;;;12.20;99.90;;;;;;4798169;29;20056;-83
2022/11/05 12:17:51;;;;;;;3.80;1.23;;;12.20;99.90;;;;;;4803318;29;20531;-83
2022/11/05 12:20:35;;;;;;;6.78;1.08;;;12.20;99.90;;;;;;4818210;29;20794;-83
2022/11/05 12:23:37;;;;;;;3.25;1.23;;;12.20;99.90;;;;;;4799369;29;20553;-84
2022/11/05 12:26:21;;;;;;;3.20;1.15;;;12.10;99.90;;;;;;4815535;29;20152;-83
2022/11/05 12:28:53;;;;;;;4.88;1.40;;;12.30;99.90;;;;;;4821010;29;20061;-83
2022/11/05 12:31:32;;;;;;;3.67;1.08;;;12.00;99.90;;;;;;4834884;29;20057;-84
2022/11/05 12:34:36;;;;;;;6.32;1.45;;;12.00;99.90;;;;;;4830574;29;20066;-83
2022/11/05 12:37:23;;;;;;;5.68;1.20;;;12.10;99.90;;;;;;4833446;29;20175;-84
2022/11/05 12:39:53;;;;;;;10.30;1.60;;;12.00;99.90;;;;;;4814812;29;20140;-84
2022/11/05 12:42:28;;;;;;;3.17;1.33;;;11.90;99.90;;;;;;4822276;29;20070;-84
2022/11/05 12:45:08;;;;;;;7.00;1.90;;;12.00;99.90;;;;;;4830516;29;20054;-84
2022/11/05 12:48:10;;;;;;;7.65;1.90;;;11.90;99.90;;;;;;4818626;29;20050;-85
2022/11/05 12:50:54;;;;;;;5.00;1.92;;;12.00;99.90;;;;;;4818687;29;20042;-84
2022/11/05 12:53:33;;;;;;;4.07;1.38;;;11.90;99.90;;;;;;4823836;29;20052;-82
2022/11/05 12:56:04;;;;;;;7.40;2.00;;;11.90;99.90;;;;;;4812986;29;20094;-83
2022/11/05 12:58:35;;;;;;;7.32;1.75;;;11.90;99.90;;;;;;4811252;29;20054;-82
2022/11/05 13:01:10;;;;;;;5.03;1.58;;;11.80;99.90;;;;;;4814681;29;20125;-83
2022/11/05 13:04:17;;;;;;;9.93;3.05;;;11.90;99.90;;;;;;4816099;29;20042;-83
2022/11/05 13:06:48;;;;;;;7.35;1.95;;;11.80;99.90;;;;;;4811094;29;20053;-85
2022/11/05 13:09:19;;;;;;;6.00;2.13;;;11.80;99.90;;;;;;4796759;29;20042;-82
2022/11/05 13:12:11;;;;;;;5.05;2.33;;;11.90;99.90;;;;;;4828378;29;20054;-83
2022/11/05 13:14:44;;;;;;;11.43;2.90;;;11.80;99.90;;;;;;4831972;29;20482;-84
2022/11/05 13:17:17;;;;;;;6.70;2.50;;;11.90;99.90;;;;;;4813989;29;20173;-83
2022/11/05 13:19:51;;;;;;;8.15;2.20;;;12.00;99.90;;;;;;4830448;29;20099;-82
2022/11/05 13:22:32;;;;;;;6.93;2.35;;;11.90;99.90;;;;;;4815833;29;20046;-85
2022/11/05 13:25:09;;;;;;;9.55;3.22;;;12.00;99.90;;;;;;4829546;29;20087;-81
2022/11/05 13:27:48;;;;;;;12.23;2.63;;;12.00;99.90;;;;;;4816885;29;20039;-83
2022/11/05 13:30:45;;;;;;;9.20;2.45;;;12.00;99.90;;;;;;4829858;29;20043;-83
2022/11/05 13:33:25;;;;;;;8.30;2.53;;;12.80;99.90;;;;;;4769917;29;20050;-82
2022/11/05 13:39:18;;;;;;;7.00;2.45;;;12.00;99.90;;;;;;4817065;29;20914;-82
2022/11/05 13:42:03;;;;;;;8.35;2.13;;;12.00;99.90;;;;;;4832672;29;20061;-83
2022/11/05 13:44:28;;;;;;;8.98;3.00;;;11.90;99.90;;;;;;4799731;29;20041;-84
2022/11/05 13:47:10;;;;;;;7.90;2.20;;;12.00;99.90;;;;;;4817763;29;20409;-83
2022/11/05 13:49:48;;;;;;;8.65;2.88;;;12.00;99.90;;;;;;4798396;29;20049;-83
2022/11/05 13:52:16;;;;;;;11.93;3.40;;;11.90;99.90;;;;;;4830507;29;20050;-84
2022/11/05 13:54:57;;;;;;;7.55;2.03;;;11.90;99.90;;;;;;4819011;29;20721;-83
2022/11/05 13:57:37;;;;;;;4.93;2.22;;;11.90;99.90;;;;;;4816634;29;20050;-83
2022/11/05 14:00:11;;;;;;;10.50;2.28;;;12.00;99.90;;;;;;4831700;29;20539;-83
2022/11/05 14:02:46;;;;;;;5.88;2.45;;;11.90;99.90;;;;;;4802221;29;20063;-83
2022/11/05 14:05:23;;;;;;;6.15;2.45;;;11.90;99.90;;;;;;4833392;29;20123;-82
2022/11/05 14:07:49;;;;;;;5.75;2.25;;;11.90;99.90;;;;;;4831979;29;20065;-83
2022/11/05 14:10:23;;;;;;;6.65;2.67;;;11.90;99.90;;;;;;4819354;29;20045;-83
2022/11/05 14:12:54;;;;;;;6.30;2.08;;;11.80;99.90;;;;;;4817129;29;20082;-82
2022/11/05 14:15:27;;;;;;;7.65;2.35;;;11.80;99.90;;;;;;4830877;29;20632;-83
2022/11/05 14:17:57;;;;;;;9.98;2.60;;;11.80;99.90;;;;;;4818494;29;20050;-84
2022/11/05 14:20:30;;;;;;;10.40;2.83;;;11.70;99.90;;;;;;4807777;29;20127;-82
2022/11/05 14:23:21;;;;;;;7.80;3.17;;;11.70;99.90;;;;;;4801558;29;20042;-84
2022/11/05 14:25:54;;;;;;;7.20;2.40;;;11.70;99.90;;;;;;4816304;29;20141;-82
2022/11/05 14:28:35;;;;;;;5.97;2.47;;;11.70;99.90;;;;;;4817232;29;20121;-83
2022/11/05 14:31:24;;;;;;;8.10;2.30;;;11.60;99.90;;;;;;4817129;29;20666;-83
2022/11/05 14:33:59;;;;;;;7.35;2.50;;;11.50;99.90;;;;;;4791565;29;20141;-84
2022/11/05 14:36:32;;;;;;;8.53;2.57;;;11.50;99.90;;;;;;4806217;29;20042;-83
2022/11/05 14:39:11;;;;;;;5.20;2.30;;;11.40;99.90;;;;;;4836148;29;20376;-83
2022/11/05 14:42:05;;;;;;;5.28;2.42;;;11.40;99.90;;;;;;4822188;29;20081;-85
2022/11/05 14:44:54;;;;;;;8.88;3.30;;;11.40;99.90;;;;;;4807790;29;20133;-85
2022/11/05 14:47:23;;;;;;;4.90;2.20;;;11.40;99.90;;;;;;4823269;29;20050;-84
2022/11/05 14:49:57;;;;;;;9.38;2.47;;;11.30;99.90;;;;;;4823398;29;20049;-85
2022/11/05 14:52:26;;;;;;;7.07;2.70;;;11.30;99.90;;;;;;4810218;29;20057;-85
2022/11/05 14:54:55;;;;;;;10.02;3.47;;;11.30;99.90;;;;;;4808854;29;20065;-85
2022/11/05 14:57:47;;;;;;;7.25;2.70;;;12.20;99.90;;;;;;4808373;29;20038;-85
2022/11/05 15:00:28;;;;;;;8.35;2.50;;;11.20;99.90;;;;;;4833396;29;20513;-83
2022/11/05 15:03:30;;;;;;;6.75;3.10;;;11.20;99.90;;;;;;4833470;29;20133;-84
2022/11/05 15:06:07;;;;;;;7.15;2.95;;;11.10;99.90;;;;;;4812031;29;20413;-84
2022/11/05 15:09:24;;;;;;;9.70;3.40;;;11.10;99.90;;;;;;4823443;29;20061;-85
2022/11/05 15:12:01;;;;;;;5.57;2.25;;;11.00;99.90;;;;;;4809015;29;20115;-84
2022/11/05 15:14:41;;;;;;;8.88;2.92;;;10.90;99.90;;;;;;4819471;29;20053;-84
2022/11/05 15:17:28;;;;;;;5.32;2.92;;;10.90;99.90;;;;;;4842148;29;20043;-84
2022/11/05 15:20:05;;;;;;;5.47;2.72;;;10.80;99.90;;;;;;4820430;29;20046;-84
2022/11/05 15:22:43;;;;;;;8.65;3.10;;;11.10;99.90;;;;;;4837147;29;20045;-85
2022/11/05 15:25:20;;;;;;;5.63;3.13;;;10.70;99.90;;;;;;4819548;29;20121;-84
2022/11/05 15:27:56;;;;;;;6.28;3.05;;;10.60;99.90;;;;;;4815145;29;20079;-84
2022/11/05 15:30:23;;;;;;;6.30;2.55;;;10.60;99.90;;;;;;4838789;29;20030;-83
2022/11/05 15:32:52;;;;;;;6.00;3.10;;;10.50;99.90;;;;;;4835590;29;20046;-84
2022/11/05 15:35:25;;;;;;;6.50;2.83;;;10.50;99.90;;;;;;4811537;29;20387;-83
2022/11/05 15:37:56;;;;;;;11.05;3.72;;;10.50;99.90;;;;;;4805858;29;20176;-85
2022/11/05 15:40:27;;;;;;;7.45;4.05;;;10.80;99.90;;;;;;4802753;29;20402;-83
2022/11/05 15:43:21;;;;;;;9.95;3.78;;;10.50;99.90;;;;;;4819466;29;20397;-86
2022/11/05 15:46:07;;;;;;;7.18;3.17;;;10.40;99.90;;;;;;4805838;29;20038;-84
2022/11/05 15:48:34;;;;;;;6.53;3.05;;;10.40;99.90;;;;;;4816900;29;20033;-83
2022/11/05 15:51:00;;;;;;;5.85;3.20;;;10.30;99.90;;;;;;4805169;29;20049;-84
2022/11/05 15:53:33;;;;;;;5.75;2.75;;;10.30;99.90;;;;;;4803929;29;20050;-84
2022/11/05 15:56:19;;;;;;;14.70;3.70;;;10.20;99.90;;;;;;4805858;29;20049;-83
2022/11/05 15:58:54;;;;;;;6.88;3.22;;;10.20;99.90;;;;;;4819153;29;20060;-83
2022/11/05 16:01:31;;;;;;;7.47;3.65;;;9.90;99.90;;;;;;4804060;29;20211;-83
2022/11/05 16:04:04;;;;;;;8.48;3.20;;;10.10;99.90;;;;;;4819479;29;20093;-83
2022/11/05 16:06:41;;;;;;;8.27;4.18;;;10.10;99.90;;;;;;4818673;29;20094;-83
2022/11/05 16:09:18;;;;;;;11.27;3.45;;;10.10;99.90;;;;;;4818012;29;20133;-82
2022/11/05 16:11:44;;;;;;;8.45;4.43;;;10.00;99.90;;;;;;4820387;29;20073;-83
2022/11/05 16:14:18;;;;;;;9.23;4.00;;;10.00;99.90;;;;;;4829865;29;20077;-81
2022/11/05 16:16:45;;;;;;;9.40;4.10;;;10.00;99.90;;;;;;4817679;29;20048;-84
2022/11/05 16:19:34;;;;;;;10.52;4.47;;;9.90;99.90;;;;;;4831935;29;20048;-86
2022/11/05 16:22:04;;;;;;;8.50;3.70;;;9.90;99.90;;;;;;4816686;29;20090;-85
2022/11/05 16:24:29;;;;;;;10.43;3.60;;;9.90;99.90;;;;;;4818255;29;20054;-82
2022/11/05 16:26:57;;;;;;;7.55;3.53;;;9.90;99.90;;;;;;4802656;29;20046;-84
2022/11/05 16:29:28;;;;;;;6.82;3.67;;;9.90;99.90;;;;;;4819398;29;20454;-85
2022/11/05 16:31:55;;;;;;;9.43;4.20;;;9.80;99.90;;;;;;4820700;29;20074;-84
2022/11/05 16:34:50;;;;;;;8.57;4.18;;;9.80;99.90;;;;;;4820523;29;20075;-84
2022/11/05 16:37:27;;;;;;;10.68;4.40;;;9.90;99.90;;;;;;4800598;29;20566;-85
2022/11/05 16:39:56;;;;;;;8.25;4.05;;;9.90;99.90;;;;;;4818671;29;20050;-84
2022/11/05 16:42:21;;;;;;;13.68;4.20;;;9.80;99.90;;;;;;4806085;29;20573;-84
2022/11/05 16:44:48;;;;;;;9.02;4.50;;;10.10;99.90;;;;;;4818125;29;20128;-84
2022/11/05 16:47:14;;;;;;;8.43;4.63;;;9.70;99.90;;;;;;4818281;29;20073;-84
2022/11/05 16:49:40;;;;;;;8.82;5.28;;;9.80;99.90;;;;;;4807197;29;20046;-83
2022/11/05 16:52:10;;;;;;;13.30;5.05;;;9.70;99.90;;;;;;4819202;29;20049;-84
2022/11/05 16:54:41;;;;;;;11.65;4.68;;;9.70;99.90;;;;;;4821331;29;20054;-87
2022/11/05 16:57:28;;;;;;;10.32;5.18;;;9.70;99.90;;;;;;4801413;29;20133;-85
2022/11/05 16:59:55;;;;;;;11.57;4.68;;;9.70;99.90;;;;;;4820653;29;20112;-85
2022/11/05 17:02:56;;;;;;;7.97;4.85;;;9.70;99.90;;;;;;4798688;29;20169;-87
2022/11/05 17:05:28;;;;;;;11.43;5.40;;;9.70;99.90;;;;;;4808210;29;20047;-85
2022/11/05 17:07:55;;;;;;;11.02;5.10;;;9.70;99.90;;;;;;4832376;29;20042;-87
2022/11/05 17:10:24;;;;;;;8.73;6.00;;;9.70;99.90;;;;;;4792405;29;20042;-85
2022/11/05 17:12:50;;;;;;;7.60;5.05;;;9.70;99.90;;;;;;4820491;29;20061;-85
2022/11/05 17:15:29;;;;;;;11.23;6.32;;;9.70;99.90;;;;;;4824280;29;20417;-87
2022/11/05 17:17:56;;;;;;;8.80;5.70;;;9.70;99.90;;;;;;4819590;29;20169;-85
2022/11/05 17:20:41;;;;;;;10.93;6.15;;;9.60;99.90;;;;;;4821806;29;20050;-86
2022/11/05 17:23:09;;;;;;;7.93;5.85;;;9.70;99.90;;;;;;4810272;29;20111;-85
2022/11/05 17:25:39;;;;;;;10.13;6.25;;;9.90;99.90;;;;;;4835551;29;20046;-85
2022/11/05 17:28:12;;;;;;;9.55;6.18;;;9.70;99.90;;;;;;4809247;29;20609;-86
2022/11/05 17:30:38;;;;;;;7.78;5.82;;;10.10;99.90;;;;;;4835194;29;20107;-86
2022/11/05 17:33:04;;;;;;;9.77;6.20;;;9.70;99.90;;;;;;4808401;29;20038;-83
2022/11/05 17:36:17;;;;;;;8.00;6.50;;;9.70;99.90;;;;;;4820112;29;20053;-85
2022/11/05 17:38:43;;;;;;;9.32;5.88;;;9.60;99.90;;;;;;4740892;30;20051;-84
2022/11/05 17:41:11;;;;;;;10.77;6.60;;;9.70;99.90;;;;;;4741931;30;20044;-84
2022/11/05 17:43:37;;;;;;;9.20;6.25;;;9.70;99.90;;;;;;4783233;29;20073;-84
2022/11/05 17:46:07;;;;;;;9.10;6.78;;;9.70;99.90;;;;;;4822794;29;20486;-84
2022/11/05 17:48:33;;;;;;;7.80;6.13;;;9.60;99.90;;;;;;4819683;29;20050;-83
2022/11/05 17:50:59;;;;;;;12.40;7.07;;;9.60;99.90;;;;;;4818453;29;20074;-86
2022/11/05 17:53:47;;;;;;;10.98;5.70;;;9.60;99.90;;;;;;4804547;29;20070;-84
2022/11/05 17:56:16;;;;;;;10.02;6.55;;;9.70;99.90;;;;;;4834645;29;20057;-85
2022/11/05 17:58:42;;;;;;;11.80;5.57;;;9.80;99.90;;;;;;4819632;29;20038;-85
2022/11/05 18:01:32;;;;;;;9.50;6.03;;;10.10;99.90;;;;;;4833531;29;20046;-85
2022/11/05 18:03:58;;;;;;;10.82;5.88;;;9.70;99.90;;;;;;4819589;29;20109;-85
2022/11/05 18:06:36;;;;;;;8.38;5.75;;;10.20;99.90;;;;;;4803838;29;20054;-85
2022/11/05 18:09:22;;;;;;;10.48;5.88;;;10.00;99.90;;;;;;4804007;29;20083;-86
2022/11/05 18:11:50;;;;;;;10.73;6.07;;;10.30;99.90;;;;;;4816655;29;20054;-86
2022/11/05 18:14:17;;;;;;;12.50;6.20;;;9.80;99.90;;;;;;4838557;29;20038;-86
2022/11/05 18:16:46;;;;;;;11.80;5.78;;;9.80;99.90;;;;;;4817948;29;20134;-84
2022/11/05 18:19:13;;;;;;;13.50;5.20;;;10.30;99.90;;;;;;4820159;29;20043;-86
2022/11/05 18:21:54;;;;;;;10.43;5.43;;;9.80;99.90;;;;;;4823832;29;20046;-85
2022/11/05 18:24:21;;;;;;;8.32;5.63;;;9.80;99.90;;;;;;4806967;29;20134;-84
2022/11/05 18:26:47;;;;;;;8.95;5.80;;;9.80;99.90;;;;;;4838073;29;20046;-84
2022/11/05 18:29:16;;;;;;;9.45;5.53;;;9.90;99.90;;;;;;4823396;29;20123;-85
2022/11/05 18:31:41;;;;;;;9.30;5.00;;;9.90;99.90;;;;;;4819523;29;20079;-84
2022/11/05 18:34:13;;;;;;;11.45;5.28;;;9.80;99.90;;;;;;4824628;29;20066;-86
2022/11/05 18:36:39;;;;;;;12.90;5.35;;;10.00;99.90;;;;;;4825777;29;20088;-84
2022/11/05 18:39:07;;;;;;;11.32;5.72;;;9.90;99.90;;;;;;4810466;29;20490;-86
2022/11/05 18:41:35;;;;;;;10.05;5.40;;;9.90;99.90;;;;;;4820476;29;20046;-85
2022/11/05 18:44:04;;;;;;;11.63;5.18;;;9.90;99.90;;;;;;4823943;29;20045;-87
2022/11/05 18:46:31;;;;;;;16.02;5.80;;;10.40;99.90;;;;;;4817931;29;20175;-85
2022/11/05 18:48:58;;;;;;;9.63;5.88;;;9.90;99.90;;;;;;4821016;29;20045;-85
2022/11/05 18:51:25;;;;;;;7.35;4.85;;;9.90;99.90;;;;;;4830312;29;20043;-85
2022/11/05 18:53:54;;;;;;;8.98;5.15;;;10.00;99.90;;;;;;4836311;29;20054;-88
2022/11/05 18:56:21;;;;;;;7.63;4.95;;;10.40;99.90;;;;;;4826831;29;20517;-85
2022/11/05 18:58:47;;;;;;;8.63;5.07;;;10.60;99.90;;;;;;4801822;29;20142;-88
2022/11/05 19:01:26;;;;;;;9.27;5.47;;;10.60;99.90;;;;;;4824022;29;20042;-86
2022/11/05 19:03:56;;;;;;;11.10;5.28;;;9.90;99.90;;;;;;4818053;29;20099;-84
2022/11/05 19:06:24;;;;;;;8.05;4.07;;;10.30;99.90;;;;;;4817096;29;20120;-84
2022/11/05 19:08:50;;;;;;;7.43;4.30;;;9.90;99.90;;;;;;4818697;29;20460;-84
2022/11/05 19:11:19;;;;;;;7.22;3.97;;;10.50;99.90;;;;;;4831984;29;20074;-85
2022/11/05 19:13:45;;;;;;;9.18;5.70;;;9.90;99.90;;;;;;4820201;29;20052;-84
2022/11/05 19:16:15;;;;;;;9.88;5.18;;;9.90;99.90;;;;;;4814307;29;20038;-84
2022/11/05 19:18:44;;;;;;;11.40;4.78;;;9.90;99.90;;;;;;4834740;29;20050;-84
2022/11/05 19:21:12;;;;;;;10.50;4.55;;;10.00;99.90;;;;;;4820900;29;20489;-84
2022/11/05 19:23:38;;;;;;;11.15;4.30;;;10.00;99.90;;;;;;4823729;29;20080;-84
2022/11/05 19:26:09;;;;;;;9.63;4.70;;;10.00;99.90;;;;;;4810218;29;20367;-84
2022/11/05 19:28:35;;;;;;;8.23;4.68;;;10.00;99.90;;;;;;4820028;29;20041;-85
2022/11/05 19:31:01;;;;;;;10.93;4.70;;;10.00;99.90;;;;;;4825271;29;20038;-84
2022/11/05 19:33:40;;;;;;;10.68;4.57;;;10.00;99.90;;;;;;4812685;29;20179;-85
2022/11/05 19:36:12;;;;;;;13.98;4.47;;;10.00;99.90;;;;;;4813902;29;20054;-86
2022/11/05 19:38:48;;;;;;;11.35;5.40;;;10.00;99.90;;;;;;4821621;29;22106;-85
2022/11/05 19:41:17;;;;;;;;;;;10.20;99.90;;;;;;4820002;29;20070;-85
2022/11/05 19:51:57;;;;;;;8.30;4.30;;;9.90;99.90;;;;;;4713370;30;20140;-85
2022/11/05 19:54:30;;;;;;;11.73;3.95;;;10.30;99.90;;;;;;4698452;30;20820;-84
2022/11/05 20:08:27;;;;;;;7.53;3.38;;;10.10;99.90;;;;;;4836302;29;20596;-86
2022/11/05 20:10:55;;;;;;;8.90;3.75;;;10.10;99.90;;;;;;4815413;29;20111;-85
2022/11/05 20:13:21;;;;;;;13.63;4.53;;;10.10;99.90;;;;;;4813638;29;20498;-86
2022/11/05 20:15:56;;;;;;;5.97;4.03;;;10.10;99.90;;;;;;4822693;29;20046;-86
2022/11/05 20:22:00;;;;;;;9.05;3.67;;;10.10;99.90;;;;;;4706551;30;20059;-86
2022/11/05 20:28:11;;;;;;;9.40;4.47;;;10.10;99.90;;;;;;4780293;29;20136;-86
2022/11/05 20:34:20;;;;;;;9.15;3.70;;;10.50;99.90;;;;;;4778129;29;20096;-86
2022/11/05 20:36:45;;;;;;;9.48;4.45;;;10.30;99.90;;;;;;4764847;29;20049;-84
2022/11/05 20:39:11;;;;;;;8.35;3.10;;;10.20;99.90;;;;;;4790454;29;20050;-83
2022/11/05 20:41:37;;;;;;;8.98;3.78;;;10.20;99.90;;;;;;4809223;29;20052;-83
2022/11/05 20:44:03;;;;;;;6.63;3.38;;;10.60;99.90;;;;;;4822747;29;20035;-84
2022/11/05 20:46:29;;;;;;;9.25;3.45;;;10.10;99.90;;;;;;4805700;29;20183;-85
2022/11/05 20:48:54;;;;;;;6.35;3.67;;;11.30;99.90;;;;;;4815465;29;20043;-84
2022/11/05 20:51:23;;;;;;;10.38;4.30;;;10.20;99.90;;;;;;4820585;29;20442;-83
2022/11/05 20:53:56;;;;;;;8.93;2.97;;;10.20;99.90;;;;;;4806240;29;20065;-85
2022/11/05 20:56:24;;;;;;;14.10;3.25;;;10.20;99.90;;;;;;4819995;29;20127;-85
2022/11/05 20:58:50;;;;;;;8.13;2.80;;;10.20;99.90;;;;;;4819581;29;20043;-84
2022/11/05 21:01:22;;;;;;;6.30;3.58;;;10.20;99.90;;;;;;4812336;29;20050;-83
2022/11/05 21:03:48;;;;;;;7.28;3.20;;;10.20;99.90;;;;;;4804105;29;20575;-84
2022/11/05 21:06:14;;;;;;;7.70;3.13;;;10.30;99.90;;;;;;4824883;29;20095;-84
2022/11/05 21:08:45;;;;;;;8.05;4.43;;;10.20;99.90;;;;;;4820001;29;20046;-84
2022/11/05 21:11:10;;;;;;;8.02;3.33;;;10.20;99.90;;;;;;4819664;29;20034;-85
2022/11/05 21:14:30;;;;;;;9.45;3.65;;;10.30;99.90;;;;;;4806086;29;20589;-84
2022/11/05 21:17:14;;;;;;;7.47;3.92;;;10.30;99.90;;;;;;4820095;29;20075;-84
2022/11/05 21:19:40;;;;;;;6.20;3.25;;;10.40;99.90;;;;;;4810434;29;20049;-84
2022/11/05 21:22:06;;;;;;;7.63;3.55;;;10.30;99.90;;;;;;4822781;29;20434;-84
2022/11/05 21:24:33;;;;;;;8.02;3.20;;;10.70;99.90;;;;;;4801416;29;20039;-84
2022/11/05 21:27:03;;;;;;;8.00;3.13;;;10.30;99.90;;;;;;4818868;29;20053;-84
2022/11/05 21:29:28;;;;;;;6.63;3.03;;;10.20;99.90;;;;;;4820058;29;20383;-84
2022/11/05 21:31:54;;;;;;;8.18;3.55;;;10.20;99.90;;;;;;4800544;29;20046;-84
2022/11/05 21:34:19;;;;;;;11.07;3.95;;;10.20;99.90;;;;;;4830347;29;20039;-82
2022/11/05 21:36:46;;;;;;;8.43;4.07;;;10.20;99.90;;;;;;4817488;29;20038;-83
2022/11/05 21:39:13;;;;;;;7.85;3.83;;;10.20;99.90;;;;;;4816733;29;20046;-84
2022/11/05 21:41:39;;;;;;;8.30;3.70;;;10.20;99.90;;;;;;4798498;29;21338;-84
2022/11/05 21:44:05;;;;;;;5.90;3.60;;;10.10;99.90;;;;;;4814862;29;20042;-84
2022/11/05 21:46:30;;;;;;;11.00;3.75;;;10.30;99.90;;;;;;4804179;29;20048;-85
2022/11/05 21:48:56;;;;;;;9.82;3.50;;;10.10;99.90;;;;;;4819588;29;20197;-86
2022/11/05 22:00:58;;;;;;;6.38;3.67;;;10.10;99.90;;;;;;4746221;30;20193;-85
2022/11/05 22:03:24;;;;;;;8.73;3.47;;;10.00;99.90;;;;;;4780598;29;20066;-86
2022/11/05 22:05:50;;;;;;;10.52;4.43;;;10.10;99.90;;;;;;4807656;29;20049;-85
2022/11/05 22:08:20;;;;;;;10.25;3.28;;;10.10;99.90;;;;;;4809338;29;20042;-84
2022/11/05 22:10:53;;;;;;;6.78;3.47;;;10.10;99.90;;;;;;4839226;29;20057;-85
2022/11/05 22:13:22;;;;;;;4.20;3.08;;;10.10;99.90;;;;;;4836524;29;20072;-85
2022/11/05 22:15:55;;;;;;;7.80;3.67;;;10.10;99.90;;;;;;4821926;29;20054;-85
2022/11/05 22:18:20;;;;;;;6.90;3.58;;;10.40;99.90;;;;;;4826233;29;20173;-85
2022/11/05 22:20:49;;;;;;;11.52;3.33;;;10.60;99.90;;;;;;4823359;29;20582;-85
2022/11/05 22:23:15;;;;;;;5.47;3.75;;;10.10;99.90;;;;;;4835446;29;20046;-85
2022/11/05 22:25:41;;;;;;;8.95;3.72;;;10.10;99.90;;;;;;4818388;29;20098;-84
2022/11/05 22:28:06;;;;;;;8.00;4.20;;;10.10;99.90;;;;;;4837840;29;20426;-84